createdAt,value
2022-11-16T00:01:31.145Z,99604.66
2022-11-16T00:04:00.911Z,99596.03
2022-11-16T00:06:37.627Z,99597.66
2022-11-16T00:09:27.094Z,99602.78
2022-11-16T00:11:57.986Z,99590.50
2022-11-16T00:14:30.223Z,99590.31
2022-11-16T00:17:00.575Z,99587.59
2022-11-16T00:19:31.555Z,99587.69
2022-11-16T00:22:00.579Z,99578.63
2022-11-16T00:24:31.224Z,99588.28
2022-11-16T00:27:00.153Z,99573.25
2022-11-16T00:29:28.690Z,99570.50
2022-11-16T00:31:56.755Z,99565.97
2022-11-16T00:34:26.430Z,99565.03
2022-11-16T00:36:56.929Z,99548.47
2022-11-16T00:39:25.196Z,99552.75
2022-11-16T00:41:54.568Z,99557.88
2022-11-16T00:44:23.850Z,99550.69
2022-11-16T00:46:52.290Z,99548.13
2022-11-16T00:49:28.694Z,99543.59
2022-11-16T00:51:59.932Z,99540.09
2022-11-16T00:54:30.418Z,99540.09
2022-11-16T00:57:01.614Z,99533.94
2022-11-16T00:59:29.670Z,99534.72
2022-11-16T01:01:57.665Z,99533.78
2022-11-16T01:04:26.711Z,99530.19
2022-11-16T01:06:56.315Z,99523.88
2022-11-16T01:09:24.730Z,99525.56
2022-11-16T01:12:10.650Z,99519.28
2022-11-16T01:14:43.235Z,99517.50
2022-11-16T01:17:11.579Z,99510.63
2022-11-16T01:19:41.103Z,99505.25
2022-11-16T01:22:09.035Z,99507.69
2022-11-16T01:24:38.892Z,99511.34
2022-11-16T01:27:12.120Z,99498.22
2022-11-16T01:29:43.615Z,99504.38
2022-11-16T01:32:43.684Z,99501.63
2022-11-16T01:35:46.214Z,99496.22
2022-11-16T01:38:19.842Z,99497.00
2022-11-16T01:40:58.682Z,99497.75
2022-11-16T01:43:27.218Z,99487.34
2022-11-16T01:45:58.194Z,99492.47
2022-11-16T01:48:30.721Z,99482.63
2022-11-16T01:50:59.162Z,99482.72
2022-11-16T01:53:27.611Z,99477.50
2022-11-16T01:55:56.278Z,99476.66
2022-11-16T01:58:28.950Z,99473.66
2022-11-16T02:00:58.348Z,99474.78
2022-11-16T02:03:27.564Z,99463.31
2022-11-16T02:06:13.878Z,99464.66
2022-11-16T02:09:13.815Z,99451.78
2022-11-16T02:12:05.087Z,99449.16
2022-11-16T02:14:48.207Z,99449.22
2022-11-16T02:17:31.796Z,99447.44
2022-11-16T02:20:27.149Z,99445.56
2022-11-16T02:23:15.537Z,99441.19
2022-11-16T02:25:55.438Z,99444.59
2022-11-16T02:28:36.123Z,99438.38
2022-11-16T02:31:16.257Z,99441.78
2022-11-16T02:33:48.299Z,99436.47
2022-11-16T02:36:22.090Z,99433.75
2022-11-16T02:38:56.136Z,99427.50
2022-11-16T02:41:27.579Z,99423.16
2022-11-16T02:44:07.608Z,99430.25
2022-11-16T02:46:38.991Z,99415.28
2022-11-16T02:49:12.097Z,99426.56
2022-11-16T02:51:41.575Z,99420.41
2022-11-16T02:54:17.060Z,99416.06
2022-11-16T02:56:52.155Z,99410.94
2022-11-16T02:59:23.588Z,99414.44
2022-11-16T03:02:00.478Z,99411.88
2022-11-16T03:04:35.014Z,99410.94
2022-11-16T03:07:06.676Z,99404.03
2022-11-16T03:09:46.843Z,99404.88
2022-11-16T03:12:20.368Z,99404.22
2022-11-16T03:14:53.303Z,99402.31
2022-11-16T03:17:29.434Z,99397.59
2022-11-16T03:20:04.390Z,99400.34
2022-11-16T03:22:37.547Z,99400.63
2022-11-16T03:25:07.230Z,99408.47
2022-11-16T03:27:40.243Z,99393.44
2022-11-16T03:30:11.645Z,99386.81
2022-11-16T03:32:47.117Z,99396.84
2022-11-16T03:35:19.036Z,99391.72
2022-11-16T03:37:50.579Z,99383.03
2022-11-16T03:40:20.793Z,99393.16
2022-11-16T03:42:49.988Z,99389.00
2022-11-16T03:45:21.990Z,99391.63
2022-11-16T03:47:53.900Z,99388.13
2022-11-16T03:50:22.070Z,99392.59
2022-11-16T03:52:54.679Z,99386.34
2022-11-16T03:55:22.677Z,99386.25
2022-11-16T03:57:50.472Z,99389.94
2022-11-16T04:00:18.591Z,99389.94
2022-11-16T04:02:46.458Z,99391.72
2022-11-16T04:05:33.162Z,99382.84
2022-11-16T04:08:18.687Z,99385.59
2022-11-16T04:11:03.979Z,99397.03
2022-11-16T04:13:51.378Z,99386.53
2022-11-16T04:16:37.249Z,99378.41
2022-11-16T04:19:25.068Z,99375.66
2022-11-16T04:22:15.336Z,99372.91
2022-11-16T04:24:46.503Z,99378.50
2022-11-16T04:27:35.984Z,99377.44
2022-11-16T04:30:05.182Z,99378.41
2022-11-16T04:32:52.693Z,99370.06
2022-11-16T04:35:43.601Z,99378.59
2022-11-16T04:38:12.987Z,99360.41
2022-11-16T04:40:41.007Z,99369.69
2022-11-16T04:43:11.790Z,99374.22
2022-11-16T04:45:57.307Z,99363.81
2022-11-16T04:48:25.208Z,99373.56
2022-11-16T04:50:53.075Z,99367.72
2022-11-16T04:53:26.974Z,99372.84
2022-11-16T04:56:00.515Z,99371.97
2022-11-16T04:58:28.957Z,99370.72
2022-11-16T05:00:56.867Z,99362.69
2022-11-16T05:03:24.706Z,99358.75
2022-11-16T05:05:55.321Z,99358.94
2022-11-16T05:08:25.891Z,99357.59
2022-11-16T05:10:53.870Z,99366.69
2022-11-16T05:13:22.849Z,99365.63
2022-11-16T05:15:51.027Z,99362.25
2022-11-16T05:18:19.133Z,99361.19
2022-11-16T05:21:00.898Z,99363.28
2022-11-16T05:23:47.811Z,99360.72
2022-11-16T05:26:15.650Z,99358.94
2022-11-16T05:28:43.514Z,99357.13
2022-11-16T05:31:11.355Z,99359.03
2022-11-16T05:33:39.242Z,99357.78
2022-11-16T05:36:07.759Z,99351.84
2022-11-16T05:38:37.064Z,99354.75
2022-11-16T05:41:05.124Z,99363.38
2022-11-16T05:43:35.115Z,99351.34
2022-11-16T05:46:03.876Z,99358.16
2022-11-16T05:48:43.060Z,99361.75
2022-11-16T05:51:13.513Z,99365.16
2022-11-16T05:53:44.163Z,99361.66
2022-11-16T05:56:35.198Z,99368.56
2022-11-16T05:59:16.711Z,99373.22
2022-11-16T06:01:51.461Z,99386.44
2022-11-16T06:04:24.848Z,99382.28
2022-11-16T06:07:22.306Z,99389.94
2022-11-16T06:09:55.947Z,99399.50
2022-11-16T06:12:27.221Z,99403.94
2022-11-16T06:14:58.313Z,99405.81
2022-11-16T06:17:28.524Z,99406.59
2022-11-16T06:19:58.723Z,99396.19
2022-11-16T06:22:26.907Z,99414.81
2022-11-16T06:24:56.282Z,99413.00
2022-11-16T06:27:24.520Z,99409.78
2022-11-16T06:29:52.319Z,99411.31
2022-11-16T06:32:20.444Z,99424.09
2022-11-16T06:34:48.219Z,99414.34
2022-11-16T06:37:18.980Z,99420.00
2022-11-16T06:39:46.789Z,99431.28
2022-11-16T06:42:16.071Z,99425.88
2022-11-16T06:44:46.310Z,99430.59
2022-11-16T06:47:17.166Z,99438.47
2022-11-16T06:49:45.511Z,99446.50
2022-11-16T06:52:13.813Z,99451.88
2022-11-16T06:54:41.670Z,99457.94
2022-11-16T06:57:09.554Z,99442.50
2022-11-16T06:59:38.769Z,99457.16
2022-11-16T07:02:06.810Z,99457.16
2022-11-16T07:04:34.814Z,99458.78
2022-11-16T07:07:02.689Z,99455.19
2022-11-16T07:09:30.653Z,99444.97
2022-11-16T07:11:59.551Z,99453.66
2022-11-16T07:14:27.388Z,99456.50
2022-11-16T07:17:00.412Z,99457.09
2022-11-16T07:19:29.869Z,99459.13
2022-11-16T07:21:57.810Z,99454.69
2022-11-16T07:24:25.625Z,99436.25
2022-11-16T07:26:53.539Z,99462.66
2022-11-16T07:29:22.515Z,99463.66
2022-11-16T07:31:50.466Z,99474.00
2022-11-16T07:34:19.670Z,99472.28
2022-11-16T07:36:47.611Z,99474.00
2022-11-16T07:39:15.443Z,99472.78
2022-11-16T07:41:44.318Z,99472.13
2022-11-16T07:44:12.515Z,99481.84
2022-11-16T07:46:48.940Z,99485.44
2022-11-16T07:49:20.093Z,99480.22
2022-11-16T07:51:48.228Z,99489.53
2022-11-16T07:54:16.857Z,99485.44
2022-11-16T07:56:44.886Z,99503.03
2022-11-16T07:59:13.021Z,99504.75
2022-11-16T08:01:40.954Z,99490.72
2022-11-16T08:04:08.941Z,99482.19
2022-11-16T08:06:38.155Z,99496.38
2022-11-16T08:09:06.078Z,99507.91
2022-11-16T08:11:33.959Z,99516.63
2022-11-16T08:14:01.709Z,99516.34
2022-11-16T08:16:29.498Z,99525.75
2022-11-16T08:18:57.341Z,99513.44
2022-11-16T08:21:25.198Z,99514.47
2022-11-16T08:23:58.431Z,99512.94
2022-11-16T08:26:27.208Z,99510.38
2022-11-16T08:28:56.528Z,99519.09
2022-11-16T08:31:26.642Z,99525.41
2022-11-16T08:33:55.001Z,99530.34
2022-11-16T08:36:22.825Z,99531.41
2022-11-16T08:38:52.385Z,99532.34
2022-11-16T08:41:22.146Z,99521.75
2022-11-16T08:43:53.161Z,99526.69
2022-11-16T08:46:21.530Z,99520.53
2022-11-16T08:48:49.524Z,99526.50
2022-11-16T08:51:20.382Z,99526.41
2022-11-16T08:53:49.376Z,99541.25
2022-11-16T08:56:19.288Z,99535.09
2022-11-16T08:58:52.464Z,99534.84
2022-11-16T09:01:26.489Z,99532.00
2022-11-16T09:03:54.690Z,99530.72
2022-11-16T09:06:22.930Z,99536.59
2022-11-16T09:08:51.320Z,99535.06
2022-11-16T09:11:21.770Z,99538.03
2022-11-16T09:13:53.766Z,99544.56
2022-11-16T09:16:22.388Z,99542.31
2022-11-16T09:18:51.307Z,99547.56
2022-11-16T09:21:20.508Z,99543.34
2022-11-16T09:23:49.071Z,99543.19
2022-11-16T09:26:20.493Z,99547.56
2022-11-16T09:28:55.150Z,99551.66
2022-11-16T09:31:24.093Z,99553.84
2022-11-16T09:33:52.170Z,99558.69
2022-11-16T09:36:20.622Z,99549.31
2022-11-16T09:39:28.930Z,99550.44
2022-11-16T09:41:50.124Z,99554.41
2022-11-16T09:44:40.817Z,99549.31
2022-11-16T09:47:15.947Z,99552.16
2022-11-16T09:49:48.348Z,99546.25
2022-11-16T09:52:26.788Z,99549.69
2022-11-16T09:54:57.917Z,99545.50
2022-11-16T09:57:34.128Z,99546.84
2022-11-16T10:00:10.423Z,99541.25
2022-11-16T10:02:44.135Z,99545.75
2022-11-16T10:05:21.614Z,99541.28
2022-11-16T10:07:51.803Z,99541.94
2022-11-16T10:10:28.852Z,99537.31
2022-11-16T10:13:04.563Z,99531.84
2022-11-16T10:15:46.786Z,99536.97
2022-11-16T10:18:29.117Z,99536.69
2022-11-16T10:21:38.255Z,99555.13
2022-11-16T10:24:34.193Z,99549.97
2022-11-16T10:27:22.106Z,99557.09
2022-11-16T10:30:03.658Z,99561.88
2022-11-16T10:32:36.929Z,99559.03
2022-11-16T10:35:09.233Z,99556.19
2022-11-16T10:37:40.803Z,99557.59
2022-11-16T10:40:20.736Z,99554.13
2022-11-16T10:42:59.951Z,99553.25
2022-11-16T10:45:36.260Z,99553.06
2022-11-16T10:48:15.642Z,99544.91
2022-11-16T10:50:46.154Z,99561.56
2022-11-16T10:53:16.176Z,99567.25
2022-11-16T10:55:44.038Z,99562.00
2022-11-16T10:58:11.840Z,99556.09
2022-11-16T11:00:43.316Z,99560.16
2022-11-16T11:03:12.697Z,99554.09
2022-11-16T11:05:50.161Z,99561.97
2022-11-16T11:08:27.635Z,99559.41
2022-11-16T11:11:23.943Z,99569.44
2022-11-16T11:14:09.841Z,99550.25
2022-11-16T11:16:38.021Z,99552.06
2022-11-16T11:19:31.281Z,99549.81
2022-11-16T11:22:00.982Z,99565.59
2022-11-16T11:24:43.888Z,99571.94
2022-11-16T11:27:13.159Z,99573.38
2022-11-16T11:29:43.966Z,99571.44
2022-11-16T11:32:22.408Z,99560.41
2022-11-16T11:34:55.242Z,99568.50
2022-11-16T11:37:28.776Z,99567.84
2022-11-16T11:40:23.656Z,99560.94
2022-11-16T11:42:59.436Z,99557.69
2022-11-16T11:45:46.137Z,99550.69
2022-11-16T11:48:29.848Z,99563.44
2022-11-16T11:51:04.241Z,99622.50
2022-11-16T11:53:50.205Z,99719.69
2022-11-16T11:56:19.142Z,99787.06
2022-11-16T11:58:49.885Z,99691.22
2022-11-16T12:01:44.163Z,99322.69
2022-11-16T12:04:50.607Z,99170.53
2022-11-16T12:07:33.694Z,99034.75
2022-11-16T12:10:11.827Z,98849.13
2022-11-16T12:12:55.303Z,98848.84
2022-11-16T12:15:41.506Z,98867.72
2022-11-16T12:18:23.996Z,98870.81
2022-11-16T12:21:04.336Z,98865.78
2022-11-16T12:23:58.263Z,98875.34
2022-11-16T12:26:38.844Z,98974.34
2022-11-16T12:29:24.141Z,98968.63
2022-11-16T12:32:22.590Z,99059.09
2022-11-16T12:35:05.136Z,98989.16
2022-11-16T12:37:39.694Z,99023.81
2022-11-16T12:40:31.013Z,99121.03
2022-11-16T12:43:21.329Z,99088.13
2022-11-16T12:46:14.125Z,99082.41
2022-11-16T12:49:27.549Z,99073.16
2022-11-16T12:52:09.129Z,99081.91
2022-11-16T12:55:24.904Z,99118.31
2022-11-16T12:58:00.650Z,99148.66
2022-11-16T13:00:30.461Z,99151.34
2022-11-16T13:03:12.656Z,99186.16
2022-11-16T13:05:59.253Z,99220.28
2022-11-16T13:08:44.701Z,99261.06
2022-11-16T13:11:20.422Z,99291.00
2022-11-16T13:13:54.196Z,99450.91
2022-11-16T13:16:23.811Z,99440.41
2022-11-16T13:18:53.462Z,99464.59
2022-11-16T13:21:32.433Z,99469.78
2022-11-16T13:24:17.927Z,99481.03
2022-11-16T13:26:54.650Z,99472.94
2022-11-16T13:29:33.642Z,99413.94
2022-11-16T13:32:11.167Z,99407.97
2022-11-16T13:34:41.286Z,99418.63
2022-11-16T13:37:42.637Z,99434.34
2022-11-16T13:40:21.281Z,99429.56
2022-11-16T13:43:02.346Z,99446.28
2022-11-16T13:45:37.134Z,99427.09
2022-11-16T13:48:20.087Z,99401.16
2022-11-16T13:50:54.626Z,99400.69
2022-11-16T13:56:18.188Z,99440.72
2022-11-16T13:58:48.695Z,99442.16
2022-11-16T14:01:20.043Z,99482.69
2022-11-16T14:03:51.594Z,99480.66
2022-11-16T14:06:57.275Z,99479.31
2022-11-16T14:09:47.986Z,99480.78
2022-11-16T14:12:53.311Z,99465.00
2022-11-16T14:15:22.872Z,99442.38
2022-11-16T14:18:37.395Z,99405.13
2022-11-16T14:21:43.954Z,99390.09
2022-11-16T14:24:23.649Z,99336.91
2022-11-16T14:27:20.080Z,99332.19
2022-11-16T14:30:00.687Z,99346.59
2022-11-16T14:32:42.646Z,99328.47
2022-11-16T14:35:34.124Z,99306.81
2022-11-16T14:38:11.953Z,99308.97
2022-11-16T14:40:48.005Z,99301.84
2022-11-16T14:43:22.950Z,99278.91
2022-11-16T14:49:20.365Z,99150.16
2022-11-16T14:51:53.159Z,99166.31
2022-11-16T14:54:28.001Z,99203.22
2022-11-16T14:57:00.819Z,99293.47
2022-11-16T14:59:29.702Z,99347.88
2022-11-16T15:02:00.346Z,99356.91
2022-11-16T15:04:28.486Z,99366.94
2022-11-16T15:07:02.856Z,99377.44
2022-11-16T15:09:34.878Z,99376.31
2022-11-16T15:12:22.841Z,99392.41
2022-11-16T15:14:54.190Z,99395.13
2022-11-16T15:17:27.224Z,99412.47
2022-11-16T15:19:59.753Z,99435.97
2022-11-16T15:22:32.837Z,99451.25
2022-11-16T15:25:02.588Z,99454.72
2022-11-16T15:27:36.750Z,99467.97
2022-11-16T15:30:13.810Z,99471.75
2022-11-16T15:32:44.803Z,99580.72
2022-11-16T15:35:19.856Z,99591.44
2022-11-16T15:38:04.454Z,99613.66
2022-11-16T15:40:33.601Z,99625.44
2022-11-16T15:43:03.715Z,99665.13
2022-11-16T15:45:33.304Z,99686.88
2022-11-16T15:48:04.371Z,99724.75
2022-11-16T15:50:36.362Z,99715.72
2022-11-16T15:53:06.699Z,99741.50
2022-11-16T15:55:38.678Z,99749.03
2022-11-16T15:58:14.714Z,99755.16
2022-11-16T16:00:48.473Z,99732.63
2022-11-16T16:03:23.415Z,99735.84
2022-11-16T16:05:52.238Z,99713.31
2022-11-16T16:08:33.074Z,99720.00
2022-11-16T16:11:04.547Z,99713.59
2022-11-16T16:13:34.939Z,99707.25
2022-11-16T16:16:29.450Z,99690.00
2022-11-16T16:19:06.529Z,99665.56
2022-11-16T16:21:43.529Z,99648.81
2022-11-16T16:24:36.421Z,99628.78
2022-11-16T16:27:11.472Z,99621.72
2022-11-16T16:29:41.776Z,99616.53
2022-11-16T16:32:14.595Z,99591.06
2022-11-16T16:34:43.571Z,99570.38
2022-11-16T16:37:12.908Z,99565.97
2022-11-16T16:39:42.319Z,99559.44
2022-11-16T16:42:13.768Z,99558.78
2022-11-16T16:44:41.811Z,99551.94
2022-11-16T16:47:10.402Z,99546.66
2022-11-16T16:49:38.452Z,99553.09
2022-11-16T16:52:07.694Z,99551.16
2022-11-16T16:54:35.597Z,99551.28
2022-11-16T16:57:04.889Z,99537.47
2022-11-16T16:59:33.170Z,99532.91
2022-11-16T17:02:01.013Z,99530.72
2022-11-16T17:04:28.820Z,99533.59
2022-11-16T17:06:56.695Z,99524.84
2022-11-16T17:09:24.602Z,99524.03
2022-11-16T17:11:52.388Z,99507.06
2022-11-16T17:14:24.483Z,99505.47
2022-11-16T17:16:52.640Z,99494.81
2022-11-16T17:19:23.365Z,99501.25
2022-11-16T17:21:52.611Z,99500.41
2022-11-16T17:24:24.145Z,99493.41
2022-11-16T17:26:52.305Z,99492.00
2022-11-16T17:29:21.814Z,99490.63
2022-11-16T17:31:49.679Z,99493.81
2022-11-16T17:34:17.550Z,99503.56
2022-11-16T17:36:45.984Z,99505.94
2022-11-16T17:39:16.858Z,99504.44
2022-11-16T17:41:44.922Z,99509.00
2022-11-16T17:44:20.192Z,99497.63
2022-11-16T17:46:50.751Z,99483.66
2022-11-16T17:49:19.139Z,99484.91
2022-11-16T17:51:49.487Z,99474.97
2022-11-16T17:54:17.312Z,99480.16
2022-11-16T17:56:45.386Z,99481.56
2022-11-16T17:59:22.788Z,99494.69
2022-11-16T18:01:57.706Z,99501.03
2022-11-16T18:04:25.680Z,99504.25
2022-11-16T18:06:53.692Z,99499.53
2022-11-16T18:09:21.671Z,99498.66
2022-11-16T18:11:49.504Z,99506.09
2022-11-16T18:14:17.565Z,99506.19
2022-11-16T18:16:47.861Z,99503.78
2022-11-16T18:19:19.765Z,99520.31
2022-11-16T18:21:48.147Z,99526.28
2022-11-16T18:24:16.134Z,99535.22
2022-11-16T18:26:44.289Z,99548.03
2022-11-16T18:29:16.871Z,99542.91
2022-11-16T18:31:45.209Z,99548.50
2022-11-16T18:34:14.219Z,99549.09
2022-11-16T18:36:43.630Z,99536.59
2022-11-16T18:39:21.705Z,99535.59
2022-11-16T18:41:55.151Z,99549.94
2022-11-16T18:44:23.796Z,99539.03
2022-11-16T18:46:52.748Z,99527.78
2022-11-16T18:49:21.089Z,99526.75
2022-11-16T18:51:52.421Z,99532.03
2022-11-16T18:54:20.325Z,99521.47
2022-11-16T18:56:49.323Z,99503.50
2022-11-16T18:59:17.580Z,99503.25
2022-11-16T19:01:45.398Z,99504.69
2022-11-16T19:04:13.305Z,99493.19
2022-11-16T19:06:42.523Z,99496.53
2022-11-16T19:09:11.786Z,99483.72
2022-11-16T19:11:39.753Z,99485.78
2022-11-16T19:14:08.462Z,99471.03
2022-11-16T19:16:37.055Z,99476.31
2022-11-16T19:19:05.416Z,99477.31
2022-11-16T19:21:33.917Z,99482.38
2022-11-16T19:24:01.927Z,99481.59
2022-11-16T19:26:32.172Z,99478.34
2022-11-16T19:29:01.575Z,99472.72
2022-11-16T19:31:31.091Z,99470.47
2022-11-16T19:34:00.535Z,99468.75
2022-11-16T19:36:30.016Z,99470.16
2022-11-16T19:38:58.979Z,99470.50
2022-11-16T19:41:28.266Z,99470.88
2022-11-16T19:44:00.227Z,99472.09
2022-11-16T19:46:36.394Z,99475.06
2022-11-16T19:49:04.926Z,99467.59
2022-11-16T19:51:35.183Z,99476.59
2022-11-16T19:54:04.429Z,99456.50
2022-11-16T19:56:33.485Z,99464.09
2022-11-16T19:59:02.831Z,99458.81
2022-11-16T20:01:30.903Z,99462.41
2022-11-16T20:04:00.386Z,99458.13
2022-11-16T20:06:30.984Z,99450.28
2022-11-16T20:09:02.866Z,99456.56
2022-11-16T20:11:33.782Z,99449.84
2022-11-16T20:14:04.631Z,99434.88
2022-11-16T20:16:38.456Z,99427.88
2022-11-16T20:19:12.191Z,99423.38
2022-11-16T20:21:43.320Z,99424.25
2022-11-16T20:24:17.173Z,99414.00
2022-11-16T20:26:47.203Z,99408.88
2022-11-16T20:29:18.236Z,99415.22
2022-11-16T20:31:47.921Z,99413.28
2022-11-16T20:34:17.517Z,99404.44
2022-11-16T20:36:47.902Z,99396.63
2022-11-16T20:39:17.594Z,99395.22
2022-11-16T20:41:45.839Z,99381.09
2022-11-16T20:44:18.286Z,99376.09
2022-11-16T20:46:46.456Z,99369.19
2022-11-16T20:49:15.528Z,99372.81
2022-11-16T20:51:43.452Z,99356.78
2022-11-16T20:54:11.494Z,99355.56
2022-11-16T20:56:55.015Z,99352.41
2022-11-16T20:59:24.429Z,99356.34
2022-11-16T21:01:55.241Z,99351.00
2022-11-16T21:04:23.482Z,99358.13
2022-11-16T21:06:56.279Z,99344.88
2022-11-16T21:09:57.262Z,99351.84
2022-11-16T21:12:42.996Z,99348.38
2022-11-16T21:15:12.562Z,99344.94
2022-11-16T21:17:40.432Z,99355.03
2022-11-16T21:20:26.974Z,99340.06
2022-11-16T21:22:55.928Z,99334.78
2022-11-16T21:25:23.802Z,99334.09
2022-11-16T21:27:52.790Z,99327.38
2022-11-16T21:30:22.199Z,99344.69
2022-11-16T21:32:52.365Z,99326.38
2022-11-16T21:35:20.984Z,99319.47
2022-11-16T21:37:52.694Z,99318.66
2022-11-16T21:40:21.800Z,99319.66
2022-11-16T21:42:52.519Z,99310.03
2022-11-16T21:45:24.110Z,99309.28
2022-11-16T21:47:52.115Z,99311.06
2022-11-16T21:50:36.040Z,99311.28
2022-11-16T21:53:04.080Z,99326.03
2022-11-16T21:55:32.183Z,99325.09
2022-11-16T21:58:04.131Z,99319.91
2022-11-16T22:00:36.058Z,99335.72
2022-11-16T22:03:04.266Z,99329.75
2022-11-16T22:05:50.617Z,99324.47
2022-11-16T22:08:18.631Z,99326.50
2022-11-16T22:10:51.743Z,99324.63
2022-11-16T22:13:20.093Z,99321.06
2022-11-16T22:15:49.476Z,99325.41
2022-11-16T22:18:17.535Z,99319.50
2022-11-16T22:20:48.902Z,99314.25
2022-11-16T22:23:21.522Z,99315.00
2022-11-16T22:25:50.582Z,99297.56
2022-11-16T22:28:21.135Z,99305.41
2022-11-16T22:30:52.194Z,99304.53
2022-11-16T22:33:22.695Z,99300.13
2022-11-16T22:35:50.686Z,99300.28
2022-11-16T22:38:18.623Z,99314.31
2022-11-16T22:40:50.982Z,99304.63
2022-11-16T22:43:20.303Z,99299.50
2022-11-16T22:45:48.276Z,99320.44
2022-11-16T22:48:17.754Z,99303.69
2022-11-16T22:50:46.719Z,99303.53
2022-11-16T22:53:15.789Z,99294.00
2022-11-16T22:55:44.799Z,99278.25
2022-11-16T22:58:12.777Z,99290.44
2022-11-16T23:00:42.313Z,99292.13
2022-11-16T23:03:12.911Z,99296.63
2022-11-16T23:05:42.126Z,99285.16
2022-11-16T23:08:09.966Z,99285.31
2022-11-16T23:10:59.487Z,99294.00
2022-11-16T23:13:44.932Z,99271.34
2022-11-16T23:16:13.898Z,99266.00
2022-11-16T23:18:41.765Z,99280.22
2022-11-16T23:21:25.297Z,99268.81
2022-11-16T23:24:19.209Z,99262.50
2022-11-16T23:27:04.817Z,99258.28
2022-11-16T23:29:35.682Z,99248.59
2022-11-16T23:32:03.481Z,99252.91
2022-11-16T23:34:31.307Z,99244.97
2022-11-16T23:37:04.415Z,99244.13
2022-11-16T23:39:32.497Z,99235.28
2022-11-16T23:42:17.800Z,99235.13
2022-11-16T23:44:45.556Z,99212.75
2022-11-16T23:47:13.382Z,99214.13
2022-11-16T23:49:41.412Z,99212.31
2022-11-16T23:52:10.896Z,99215.75
2022-11-16T23:54:38.915Z,99187.50
2022-11-16T23:57:07.098Z,99199.84
2022-11-16T23:59:35.049Z,99192.78
